UPSVAC Airport Information Service

Louisville International Airport

ICAO: KSDF Country: United States
Latitude: 38.1741 Longitude: -85.7364
Latest Arrival : UPS643 (KMKE-KSDF) Latest Departure : UPS577 (KSDF-KMKE)


WX CaptureLIVE
Data provided by noaa.gov | Fetched at 11:11:24

METAR : KSDF 271056Z 06006KT 10SM OVC026 02/M04 A3015 RMK AO2 SLP211 T00171039

TAF : KSDF 270520Z 2706/2812 34008KT P6SM SCT025 BKN040 TEMPO 2707/2711 BKN025 FM271100 03010KT P6SM BKN018 FM271800 01011KT P6SM BKN015 PROB30 2719/2721 5SM -SN SCT008 BKN015 FM272100 36015KT 3SM -SN SCT009 BKN013 TEMPO 2722/2802 1 1/2SM -SN BKN009 FM280400 34014KT P6SM SCT020


Runway Data for KSDF
Data provided by openaviationdata.com

Runway ID Mag Var Hdg Length Elevation Surface ILS Freq ILS Id ILS Slope
11 -2 113° 7241 ft 501 ft Concrete -- -- --
17L -2 167° 8587 ft 501 ft Concrete 111.95 IPKI 3
17R -2 168° 10010 ft 501 ft Concrete 110.3 ISNU 3
29 -2 293° 7241 ft 501 ft Concrete 109.1 ILKS 3
35L -2 348° 10010 ft 501 ft Concrete 109.35 IRLI 3
35R -2 347° 8587 ft 501 ft Concrete 110.55 IJJM 3

Louisville International Airport, United States
Use only for reference purposes



Not for navigational purposes.